Dru Lirette — WDB9956 — position and weather

sailwx.info

Track history (hours):
 
Tides and Currents Weather Stations Pressure Air Temp Water Temp Dewpoint Dewpoint Depression Visibility Wind Speed Wind Dir Waves Ship Positions

Dru Lirette

Owner: AEP River Operations LLC, Chesterfield, MO. More information available from US FCC via Universal Licensing System and Coast Guard Vessel Documentation Center.

Last reported at 2015-May-03 08:15 UTC. Time now 2015-May-24 03:17 UTC.
Position N 38°46' W 085°01'.
Warning: this ship's position is 20 days out of date.

Length 46 m; draft 10 m.

Type: Towing. MMSI: 366985660.

Date/timePositionNaut miles runAvg speedWind from/ knotsBaromVisibWave heightAir tempDewpointWater temp
2015-May-03 08:15N 38°46' W 085°01'20 2.5
2015-May-03 00:17N 39°05' W 084°52'0 0.0
2015-May-02 20:28N 39°05' W 084°52'6 1.3
2015-May-02 15:33N 39°09' W 084°45'4 4.5
2015-May-02 14:33N 39°06' W 084°41'5 4.6
2015-May-02 13:33N 39°05' W 084°35'5 4.6
2015-May-02 12:33N 39°06' W 084°30'3 3.2
2015-May-02 11:33N 39°05' W 084°26'4 4.3
2015-May-02 10:32N 39°02' W 084°21'5 4.8
2015-May-02 09:33N 38°58' W 084°18'5 5.1
2015-May-02 08:33N 38°54' W 084°15'4 4.0
2015-May-02 07:32N 38°50' W 084°14'3 2.6
2015-May-02 06:33N 38°48' W 084°12'2 2.0
2015-May-02 05:29N 38°48' W 084°09'5 4.7
2015-May-02 04:31N 38°46' W 084°04'10 0.3
2015-Apr-30 21:21N 38°45' W 083°51'11 4.1
2015-Apr-30 18:33N 38°46' W 084°06'4 3.1
2015-Apr-30 17:14N 38°48' W 084°11'2 2.7
2015-Apr-30 16:33N 38°48' W 084°13'3 2.3
2015-Apr-30 15:24N 38°51' W 084°14'0 0.2
2015-Apr-30 14:20N 38°51' W 084°14'0 0.3
2015-Apr-30 13:19N 38°51' W 084°14'2 3.1
2015-Apr-30 12:33N 38°53' W 084°14'4 3.8
2015-Apr-30 11:33N 38°56' W 084°17'4 3.7
2015-Apr-30 10:33N 38°60' W 084°18'4 3.7
2015-Apr-30 09:33N 39°02' W 084°22'4 3.6
2015-Apr-30 08:33N 39°04' W 084°26'4 3.7
2015-Apr-30 07:33N 39°07' W 084°27'4 3.8
2015-Apr-30 06:33N 39°06' W 084°32'4 3.5
2015-Apr-30 05:33N 39°04' W 084°36'3 2.7
2015-Apr-30 04:33N 39°05' W 084°39'0 0.1
2015-Apr-30 03:29N 39°05' W 084°39'0 0.0
2015-Apr-30 02:33N 39°05' W 084°39'0 0.0
2015-Apr-30 01:33N 39°05' W 084°39'0 0.1
2015-Apr-30 00:31N 39°05' W 084°39'0 0.2
2015-Apr-29 23:31N 39°06' W 084°40'0 0.1
2015-Apr-29 22:27N 39°06' W 084°40'0 0.0
2015-Apr-29 21:25N 39°06' W 084°40'3 3.7
2015-Apr-29 20:31N 39°08' W 084°43'3 3.0
2015-Apr-29 19:25N 39°07' W 084°47'  
Track history (hours):
 
Tides and Currents Weather Stations Pressure Air Temp Water Temp Dewpoint Dewpoint Depression Visibility Wind Speed Wind Dir Waves Ship Positions

Dru Lirette

Owner: AEP River Operations LLC, Chesterfield, MO. More information available from US FCC via Universal Licensing System and Coast Guard Vessel Documentation Center.

Last reported at 2015-May-03 08:15 UTC. Time now 2015-May-24 03:17 UTC.
Position N 38°46' W 085°01'.
Warning: this ship's position is 20 days out of date.

Length 46 m; draft 10 m.

Type: Towing. MMSI: 366985660.

Date/timePositionNaut miles runAvg speedWind from/ knotsBaromVisibWave heightAir tempDewpointWater temp
2015-May-03 08:15N 38°46' W 085°01'20 2.5
2015-May-03 00:17N 39°05' W 084°52'0 0.0
2015-May-02 20:28N 39°05' W 084°52'6 1.3
2015-May-02 15:33N 39°09' W 084°45'4 4.5
2015-May-02 14:33N 39°06' W 084°41'5 4.6
2015-May-02 13:33N 39°05' W 084°35'5 4.6
2015-May-02 12:33N 39°06' W 084°30'3 3.2
2015-May-02 11:33N 39°05' W 084°26'4 4.3
2015-May-02 10:32N 39°02' W 084°21'5 4.8
2015-May-02 09:33N 38°58' W 084°18'5 5.1
2015-May-02 08:33N 38°54' W 084°15'4 4.0
2015-May-02 07:32N 38°50' W 084°14'3 2.6
2015-May-02 06:33N 38°48' W 084°12'2 2.0
2015-May-02 05:29N 38°48' W 084°09'5 4.7
2015-May-02 04:31N 38°46' W 084°04'10 0.3
2015-Apr-30 21:21N 38°45' W 083°51'11 4.1
2015-Apr-30 18:33N 38°46' W 084°06'4 3.1
2015-Apr-30 17:14N 38°48' W 084°11'2 2.7
2015-Apr-30 16:33N 38°48' W 084°13'3 2.3
2015-Apr-30 15:24N 38°51' W 084°14'0 0.2
2015-Apr-30 14:20N 38°51' W 084°14'0 0.3
2015-Apr-30 13:19N 38°51' W 084°14'2 3.1
2015-Apr-30 12:33N 38°53' W 084°14'4 3.8
2015-Apr-30 11:33N 38°56' W 084°17'4 3.7
2015-Apr-30 10:33N 38°60' W 084°18'4 3.7
2015-Apr-30 09:33N 39°02' W 084°22'4 3.6
2015-Apr-30 08:33N 39°04' W 084°26'4 3.7
2015-Apr-30 07:33N 39°07' W 084°27'4 3.8
2015-Apr-30 06:33N 39°06' W 084°32'4 3.5
2015-Apr-30 05:33N 39°04' W 084°36'3 2.7
2015-Apr-30 04:33N 39°05' W 084°39'0 0.1
2015-Apr-30 03:29N 39°05' W 084°39'0 0.0
2015-Apr-30 02:33N 39°05' W 084°39'0 0.0
2015-Apr-30 01:33N 39°05' W 084°39'0 0.1
2015-Apr-30 00:31N 39°05' W 084°39'0 0.2
2015-Apr-29 23:31N 39°06' W 084°40'0 0.1
2015-Apr-29 22:27N 39°06' W 084°40'0 0.0
2015-Apr-29 21:25N 39°06' W 084°40'3 3.7
2015-Apr-29 20:31N 39°08' W 084°43'3 3.0
2015-Apr-29 19:25N 39°07' W 084°47'  

Dump ship's entire track history